Time;durP1;ratioP1;P1;durP2;ratioP2;P2;SDS_P1;SDS_P2;PMS_P1;PMS_P2;Temp;Humidity;BMP_temperature;BMP_pressure;BME280_temperature;BME280_humidity;BME280_pressure;Samples;Min_cycle;Max_cycle;Signal;HPM_P1;HPM_P2
2022/09/15 00:01:29;;;;;;;3.22;1.30;;;;;;;26.37;39.32;100798.81;5028301;28;20513;-73
2022/09/15 00:03:54;;;;;;;4.68;1.70;;;;;;;26.46;38.89;100795.41;5011872;28;20109;-72
2022/09/15 00:06:20;;;;;;;5.35;1.40;;;;;;;26.18;38.83;100797.53;5011853;28;20397;-73
2022/09/15 00:08:45;;;;;;;3.40;1.27;;;;;;;26.19;39.54;100793.88;5011037;28;20029;-73
2022/09/15 00:11:16;;;;;;;2.03;1.08;;;;;;;26.27;39.18;100787.94;5028586;28;20040;-73
2022/09/15 00:13:42;;;;;;;5.97;1.52;;;;;;;26.29;39.19;100793.19;5031480;28;20048;-73
2022/09/15 00:16:09;;;;;;;6.38;1.02;;;;;;;26.52;38.73;100789.56;5021650;28;20092;-73
2022/09/15 00:18:35;;;;;;;4.85;1.27;;;;;;;26.17;39.12;100785.13;5061496;28;20064;-72
2022/09/15 00:21:11;;;;;;;5.38;1.10;;;;;;;26.01;39.91;100790.75;5029277;28;20108;-73
2022/09/15 00:23:37;;;;;;;4.88;1.30;;;;;;;26.22;39.17;100796.31;5029495;28;20025;-73
2022/09/15 00:26:07;;;;;;;1.35;1.17;;;;;;;26.15;39.31;100796.94;5028610;28;20044;-73
2022/09/15 00:28:32;;;;;;;3.20;1.20;;;;;;;26.13;39.51;100786.34;5030226;28;20174;-72
2022/09/15 00:30:57;;;;;;;3.22;1.27;;;;;;;26.30;39.08;100790.38;5029519;28;20033;-73
2022/09/15 00:33:23;;;;;;;4.78;1.35;;;;;;;26.47;38.68;100785.53;5025170;28;20332;-73
2022/09/15 00:35:51;;;;;;;3.42;1.10;;;;;;;26.10;39.93;100786.56;5012880;28;20084;-73
2022/09/15 00:38:17;;;;;;;8.27;1.15;;;;;;;26.37;39.26;100782.72;5023383;28;20037;-73
2022/09/15 00:40:49;;;;;;;5.13;1.75;;;;;;;26.48;38.99;100782.75;5028226;28;20045;-72
2022/09/15 00:43:16;;;;;;;4.85;0.95;;;;;;;26.54;38.71;100774.25;5029349;28;20078;-73
2022/09/15 00:45:41;;;;;;;5.20;1.30;;;;;;;26.47;38.78;100785.53;5027086;28;20025;-73
2022/09/15 00:48:27;;;;;;;4.88;1.40;;;;;;;26.09;39.63;100787.53;5029080;28;20382;-72
2022/09/15 00:50:57;;;;;;;5.32;1.90;;;;;;;26.19;39.35;100785.84;5026942;28;20059;-73
2022/09/15 00:53:25;;;;;;;5.47;1.30;;;;;;;26.34;39.10;100789.19;5029182;28;20033;-73
2022/09/15 00:55:51;;;;;;;3.88;1.42;;;;;;;26.64;38.50;100792.25;5029796;28;20033;-72
2022/09/15 00:58:46;;;;;;;2.72;1.20;;;;;;;26.36;39.40;100791.72;5025554;28;20033;-73
2022/09/15 01:01:13;;;;;;;18.70;2.30;;;;;;;26.94;37.96;100796.19;5017900;28;20120;-72
2022/09/15 01:03:39;;;;;;;5.40;1.70;;;;;;;26.51;38.47;100790.53;5032605;28;20040;-73
2022/09/15 01:06:14;;;;;;;5.95;1.35;;;;;;;26.14;39.50;100785.34;5019896;28;20026;-73
2022/09/15 01:08:50;;;;;;;8.02;1.48;;;;;;;26.41;38.98;100786.88;5013881;28;20399;-73
2022/09/15 01:11:16;;;;;;;5.80;1.55;;;;;;;26.63;38.20;100780.69;5013759;28;20466;-73
2022/09/15 01:13:43;;;;;;;2.85;1.60;;;;;;;26.70;38.14;100791.81;5016481;28;20813;-72
2022/09/15 01:16:31;;;;;;;5.15;2.20;;;;;;;27.03;37.47;100787.41;5031963;28;20115;-72
2022/09/15 01:19:33;;;;;;;4.28;2.00;;;;;;;26.76;37.59;100791.31;5032570;28;20026;-72
2022/09/15 01:22:06;;;;;;;6.05;2.22;;;;;;;26.49;37.65;100800.53;5030689;28;20402;-72
2022/09/15 01:24:50;;;;;;;4.60;2.10;;;;;;;26.65;37.57;100793.97;5033051;28;20082;-73
2022/09/15 01:27:53;;;;;;;5.15;2.65;;;;;;;26.53;37.13;100802.00;5031289;28;20040;-72
2022/09/15 01:30:23;;;;;;;5.95;2.97;;;;;;;26.46;37.65;100794.53;5030367;28;20044;-73
2022/09/15 01:33:04;;;;;;;4.18;3.08;;;;;;;26.71;37.04;100793.53;5034403;28;20026;-74
2022/09/15 01:35:41;;;;;;;4.95;3.15;;;;;;;26.15;37.84;100788.91;5031034;28;20438;-73
2022/09/15 01:38:06;;;;;;;6.88;2.75;;;;;;;26.30;37.59;100794.91;5032547;28;20029;-73
2022/09/15 01:40:37;;;;;;;7.45;3.72;;;;;;;26.79;37.13;100791.09;5033242;28;20025;-72
2022/09/15 01:43:05;;;;;;;4.80;2.90;;;;;;;26.72;37.22;100787.16;5031852;28;20564;-73
2022/09/15 01:45:33;;;;;;;11.40;3.42;;;;;;;26.84;36.76;100788.88;5030725;28;20025;-73
2022/09/15 01:48:00;;;;;;;7.25;3.25;;;;;;;26.82;37.23;100796.19;5010930;28;20167;-72
2022/09/15 01:50:32;;;;;;;4.70;3.35;;;;;;;26.57;37.30;100798.09;5021668;28;20029;-73
2022/09/15 01:53:01;;;;;;;8.60;2.95;;;;;;;26.43;38.19;100801.00;5032687;28;20104;-72
2022/09/15 01:55:37;;;;;;;9.48;3.25;;;;;;;27.06;36.65;100808.63;5027772;28;20028;-73
2022/09/15 01:58:03;;;;;;;9.10;3.10;;;;;;;26.13;38.67;100810.44;5024162;28;20033;-72
2022/09/15 02:00:34;;;;;;;12.30;2.85;;;;;;;25.31;40.44;100815.56;5032533;28;20029;-72
2022/09/15 02:03:05;;;;;;;3.60;2.42;;;;;;;25.83;39.50;100803.72;5031556;28;20033;-73
2022/09/15 02:05:40;;;;;;;4.18;2.58;;;;;;;25.83;39.77;100797.50;5021539;28;20029;-73
2022/09/15 02:08:37;;;;;;;5.88;2.70;;;;;;;26.88;37.97;100795.69;5011684;28;20076;-73
2022/09/15 02:11:14;;;;;;;9.27;3.08;;;;;;;26.91;37.56;100805.34;5015335;28;20041;-73
2022/09/15 02:14:16;;;;;;;7.20;2.80;;;;;;;26.79;37.97;100812.53;5031665;28;20029;-73
2022/09/15 02:16:45;;;;;;;6.13;2.72;;;;;;;26.81;38.14;100805.22;5022075;28;20033;-73
2022/09/15 02:19:20;;;;;;;10.10;3.25;;;;;;;27.13;38.00;100799.09;5065475;28;20052;-72
2022/09/15 02:22:06;;;;;;;8.30;3.00;;;;;;;26.73;38.46;100808.50;5031491;28;20036;-72
2022/09/15 02:24:39;;;;;;;5.45;3.03;;;;;;;26.86;37.96;100803.03;5031407;28;20025;-73
2022/09/15 02:27:11;;;;;;;5.05;2.72;;;;;;;26.69;38.34;100811.50;5019084;28;20053;-72
2022/09/15 02:29:38;;;;;;;6.30;2.75;;;;;;;26.97;37.77;100804.84;5032757;28;20022;-73
2022/09/15 02:32:06;;;;;;;5.82;2.40;;;;;;;27.39;37.41;100807.72;5030826;28;20036;-73
2022/09/15 02:34:37;;;;;;;7.10;2.47;;;;;;;26.87;38.21;100810.09;5031949;28;20093;-73
2022/09/15 02:37:04;;;;;;;5.85;3.08;;;;;;;26.90;38.08;100809.84;5030888;28;20485;-73
2022/09/15 02:39:37;;;;;;;7.50;2.63;;;;;;;26.87;38.15;100810.09;5031672;28;20489;-73
2022/09/15 02:42:03;;;;;;;6.93;2.70;;;;;;;27.12;37.60;100812.63;5028186;28;20053;-73
2022/09/15 02:44:29;;;;;;;6.18;2.60;;;;;;;26.80;38.29;100802.66;5029302;28;20044;-73
2022/09/15 02:46:56;;;;;;;6.10;2.50;;;;;;;26.63;38.67;100806.66;5029878;28;20025;-73
2022/09/15 02:49:22;;;;;;;5.05;2.20;;;;;;;26.70;38.55;100810.56;5031253;28;20080;-72
2022/09/15 02:51:47;;;;;;;5.53;2.30;;;;;;;26.57;39.01;100808.81;5029533;28;20473;-72
2022/09/15 02:54:13;;;;;;;8.90;2.75;;;;;;;26.84;38.21;100815.69;5031141;28;20068;-73
2022/09/15 02:56:38;;;;;;;4.05;2.35;;;;;;;26.75;38.25;100808.41;5019125;28;20519;-73
2022/09/15 02:59:04;;;;;;;4.47;1.98;;;;;;;26.67;38.50;100808.13;5030069;28;20537;-74
2022/09/15 03:01:31;;;;;;;8.32;2.80;;;;;;;26.81;37.96;100810.56;5030588;28;20032;-73
2022/09/15 03:03:57;;;;;;;3.80;2.42;;;;;;;26.46;38.74;100811.50;5030080;28;20057;-73
2022/09/15 03:06:23;;;;;;;7.15;2.58;;;;;;;26.40;39.17;100811.97;5023577;28;20060;-73
2022/09/15 03:08:57;;;;;;;10.50;3.17;;;;;;;26.65;38.86;100810.03;5016929;28;20237;-72
2022/09/15 03:11:26;;;;;;;5.18;2.60;;;;;;;26.55;38.87;100815.28;5018228;28;20554;-73
2022/09/15 03:13:56;;;;;;;6.10;2.70;;;;;;;26.78;38.72;100808.16;5012971;28;20022;-73
2022/09/15 03:16:22;;;;;;;8.13;3.00;;;;;;;26.85;38.48;100806.69;5048042;28;20071;-73
2022/09/15 03:18:48;;;;;;;4.63;2.45;;;;;;;26.58;38.89;100817.72;5030142;28;20087;-73
2022/09/15 03:21:15;;;;;;;6.55;2.63;;;;;;;26.49;39.01;100816.63;5023010;28;20489;-72
2022/09/15 03:23:41;;;;;;;6.15;2.42;;;;;;;26.43;39.23;100817.06;5028912;28;20405;-73
2022/09/15 03:26:07;;;;;;;9.30;2.50;;;;;;;26.50;39.11;100823.69;5026050;28;20029;-73
2022/09/15 03:28:33;;;;;;;5.18;2.75;;;;;;;26.52;38.98;100827.09;5011389;28;20045;-72
2022/09/15 03:30:59;;;;;;;5.18;2.38;;;;;;;26.42;39.42;100826.09;5015191;28;20033;-73
2022/09/15 03:33:25;;;;;;;5.55;2.50;;;;;;;26.55;38.98;100829.50;5025475;28;20175;-73
2022/09/15 03:35:51;;;;;;;6.35;2.40;;;;;;;26.67;38.72;100832.25;5010888;28;20097;-73
2022/09/15 03:38:17;;;;;;;6.00;2.45;;;;;;;26.53;38.72;100839.53;5031651;28;20473;-72
2022/09/15 03:40:43;;;;;;;5.78;2.42;;;;;;;26.36;39.39;100842.63;5016550;28;20579;-73
2022/09/15 03:43:09;;;;;;;4.63;3.25;;;;;;;26.80;38.68;100834.84;5012337;28;20120;-72
2022/09/15 03:45:38;;;;;;;5.10;2.30;;;;;;;26.68;38.85;100836.59;5027357;28;20037;-73
2022/09/15 03:48:05;;;;;;;8.30;2.33;;;;;;;26.58;38.81;100831.09;5029272;28;20029;-73
2022/09/15 03:50:34;;;;;;;3.97;2.40;;;;;;;26.70;38.67;100823.97;5016186;28;20107;-72
2022/09/15 03:52:59;;;;;;;9.10;2.72;;;;;;;26.59;39.03;100839.03;5011109;28;20037;-72
2022/09/15 03:55:26;;;;;;;7.43;2.20;;;;;;;26.69;38.44;100832.97;5028622;28;20029;-72
2022/09/15 03:57:51;;;;;;;9.43;2.75;;;;;;;26.11;39.48;100825.75;5030023;28;20025;-74
2022/09/15 04:00:17;;;;;;;5.40;1.95;;;;;;;26.26;39.35;100828.25;5029256;28;20037;-72
2022/09/15 04:02:42;;;;;;;5.72;2.45;;;;;;;26.42;39.12;100831.47;5012009;28;20028;-73
2022/09/15 04:05:08;;;;;;;10.98;3.40;;;;;;;26.20;39.69;100830.44;5029805;28;20120;-73
2022/09/15 04:07:33;;;;;;;4.18;2.00;;;;;;;26.27;39.39;100835.28;5016601;28;20041;-73
2022/09/15 04:09:59;;;;;;;4.60;2.10;;;;;;;26.31;39.07;100828.72;5018524;28;20041;-72
2022/09/15 04:12:25;;;;;;;7.38;2.13;;;;;;;26.46;39.06;100829.38;5011229;28;20030;-73
2022/09/15 04:14:51;;;;;;;9.98;2.47;;;;;;;26.42;39.47;100831.47;5010005;28;20401;-72
2022/09/15 04:17:16;;;;;;;6.25;2.28;;;;;;;26.36;39.42;100831.91;5010502;28;20033;-73
2022/09/15 04:19:42;;;;;;;7.30;2.08;;;;;;;26.92;38.25;100834.69;5014693;28;20075;-73
2022/09/15 04:22:07;;;;;;;5.60;2.00;;;;;;;26.63;38.99;100833.44;5028250;28;20450;-73
2022/09/15 04:24:33;;;;;;;6.03;2.38;;;;;;;26.54;39.07;100841.22;5042681;28;20036;-73
2022/09/15 04:26:58;;;;;;;4.63;2.65;;;;;;;26.56;39.05;100835.75;5050900;28;20033;-73
2022/09/15 04:29:23;;;;;;;5.45;2.10;;;;;;;26.74;38.60;100830.81;5027694;28;20140;-73
2022/09/15 04:31:49;;;;;;;6.88;2.30;;;;;;;26.94;38.37;100831.06;5026385;28;20036;-73
2022/09/15 04:34:14;;;;;;;3.63;2.22;;;;;;;26.84;38.77;100834.47;5033384;28;20025;-73
2022/09/15 04:36:40;;;;;;;4.93;2.20;;;;;;;26.99;37.83;100828.88;5032614;28;20018;-72
2022/09/15 04:39:05;;;;;;;3.78;1.92;;;;;;;27.20;37.80;100837.88;5023375;28;20116;-73
2022/09/15 04:41:32;;;;;;;7.15;2.03;;;;;;;26.08;38.78;100831.34;5018505;28;20516;-72
2022/09/15 04:43:58;;;;;;;10.77;3.28;;;;;;;25.76;39.69;100833.72;5013302;28;20030;-73
2022/09/15 04:46:24;;;;;;;6.55;1.58;;;;;;;26.45;38.13;100831.22;5027883;28;20103;-73
2022/09/15 04:48:49;;;;;;;4.18;1.83;;;;;;;26.39;38.11;100837.03;5028677;28;20032;-73
2022/09/15 04:51:18;;;;;;;5.10;1.48;;;;;;;26.20;38.00;100843.81;5031587;28;20126;-73
2022/09/15 04:53:44;;;;;;;9.25;2.30;;;;;;;26.11;38.07;100838.31;5024988;28;20029;-72
2022/09/15 04:56:21;;;;;;;7.03;1.50;;;;;;;26.21;37.99;100832.13;5058245;28;20091;-72
2022/09/15 04:58:49;;;;;;;5.28;1.40;;;;;;;26.29;37.71;100820.81;5014406;28;20053;-73
2022/09/15 05:01:24;;;;;;;5.50;1.60;;;;;;;26.29;37.68;100820.81;5023442;28;20122;-73
2022/09/15 05:03:50;;;;;;;6.05;1.20;;;;;;;26.37;37.59;100833.63;5033356;28;20034;-73
2022/09/15 05:06:20;;;;;;;7.70;1.35;;;;;;;26.41;37.09;100829.75;5021159;28;20033;-73
2022/09/15 05:08:50;;;;;;;8.80;1.20;;;;;;;26.68;37.26;100831.25;5023760;28;20398;-73
2022/09/15 05:11:16;;;;;;;6.35;1.20;;;;;;;26.48;36.65;100830.97;5029169;28;20338;-73
2022/09/15 05:13:42;;;;;;;3.63;0.95;;;;;;;26.45;37.53;100835.72;5032485;28;20424;-73
2022/09/15 05:16:11;;;;;;;4.15;1.50;;;;;;;26.46;37.51;100832.94;5032176;28;20029;-73
2022/09/15 05:18:37;;;;;;;5.32;1.45;;;;;;;26.80;36.86;100835.66;5012837;28;20382;-73
2022/09/15 05:21:04;;;;;;;6.30;1.23;;;;;;;26.56;36.74;100833.91;5013568;28;20049;-73
2022/09/15 05:23:30;;;;;;;3.72;1.40;;;;;;;26.71;36.66;100837.25;5023879;28;20098;-73
2022/09/15 05:26:01;;;;;;;8.30;1.40;;;;;;;26.61;36.75;100835.38;5031160;28;20040;-73
2022/09/15 05:28:27;;;;;;;3.78;0.90;;;;;;;26.52;37.12;100835.13;5023661;28;20057;-73
2022/09/15 05:30:54;;;;;;;3.65;1.30;;;;;;;26.53;36.97;100833.28;5032992;28;20063;-73
2022/09/15 05:33:20;;;;;;;4.00;1.25;;;;;;;26.27;37.33;100837.97;5031993;28;20112;-73
2022/09/15 05:35:55;;;;;;;2.30;1.33;;;;;;;26.35;37.33;100835.56;5031819;28;20049;-73
2022/09/15 05:38:21;;;;;;;3.25;1.27;;;;;;;26.44;37.22;100826.81;5041544;28;20029;-73
2022/09/15 05:40:47;;;;;;;2.17;1.10;;;;;;;26.48;37.11;100824.78;5048136;28;20458;-73
2022/09/15 05:43:13;;;;;;;6.88;1.63;;;;;;;26.11;37.59;100830.28;5043325;28;20370;-73
2022/09/15 05:45:41;;;;;;;3.80;1.75;;;;;;;26.44;37.66;100834.88;5062256;28;20413;-73
2022/09/15 05:48:07;;;;;;;3.60;1.80;;;;;;;26.19;38.53;100838.56;5032243;28;20022;-73
2022/09/15 05:50:33;;;;;;;4.10;1.60;;;;;;;26.15;38.46;100837.94;5031634;28;20473;-73
2022/09/15 05:53:01;;;;;;;5.45;1.60;;;;;;;26.38;38.02;100846.06;5053445;28;20036;-73
2022/09/15 05:55:27;;;;;;;6.25;1.38;;;;;;;25.91;38.10;100854.88;5031839;28;20029;-73
2022/09/15 05:57:52;;;;;;;3.00;1.23;;;;;;;26.08;38.40;100842.91;5031633;28;20013;-73
2022/09/15 06:00:18;;;;;;;4.60;1.13;;;;;;;26.75;36.92;100843.25;5031925;28;20033;-73
2022/09/15 06:02:43;;;;;;;4.60;1.73;;;;;;;26.75;36.93;100848.59;5031621;28;20036;-73
2022/09/15 06:05:09;;;;;;;1.90;1.00;;;;;;;26.53;37.10;100846.69;5031671;28;20087;-73
2022/09/15 06:07:35;;;;;;;5.78;1.23;;;;;;;26.57;37.20;100851.72;5020241;28;20021;-73
2022/09/15 06:10:00;;;;;;;5.60;1.10;;;;;;;26.62;37.26;100853.19;5032251;28;20025;-73
2022/09/15 06:12:26;;;;;;;5.47;1.00;;;;;;;26.52;37.81;100863.75;5018510;28;20049;-73
2022/09/15 06:14:52;;;;;;;2.33;1.10;;;;;;;26.75;37.21;100864.69;5030328;28;20025;-73
2022/09/15 06:17:17;;;;;;;7.57;1.30;;;;;;;26.50;37.02;100871.03;5028182;28;20030;-73
2022/09/15 06:19:43;;;;;;;3.10;1.10;;;;;;;26.59;37.35;100871.19;5031563;28;20111;-73
2022/09/15 06:22:08;;;;;;;2.80;1.10;;;;;;;26.67;36.83;100872.44;5031588;28;20120;-73
2022/09/15 06:24:33;;;;;;;7.35;1.25;;;;;;;26.95;36.39;100878.34;5031667;28;20083;-73
2022/09/15 06:26:59;;;;;;;4.90;1.15;;;;;;;27.03;36.29;100873.25;5018341;28;20028;-73
2022/09/15 06:29:24;;;;;;;4.78;1.60;;;;;;;26.79;36.50;100876.88;5042435;28;20088;-73
2022/09/15 06:31:50;;;;;;;6.53;1.00;;;;;;;26.89;36.93;100874.34;5020158;28;20013;-73
2022/09/15 06:34:15;;;;;;;7.50;1.27;;;;;;;26.84;37.22;100874.66;5029687;28;20021;-73
2022/09/15 06:36:41;;;;;;;5.35;1.33;;;;;;;27.14;36.52;100875.91;5031265;28;20417;-74
2022/09/15 06:39:07;;;;;;;3.33;1.00;;;;;;;27.46;35.74;100874.34;5030024;28;20029;-73
2022/09/15 06:41:33;;;;;;;3.15;1.95;;;;;;;27.37;36.15;100870.59;5012882;28;20543;-73
2022/09/15 06:43:58;;;;;;;4.70;1.58;;;;;;;27.26;36.32;100874.09;5011536;28;20526;-74
2022/09/15 06:46:27;;;;;;;11.60;1.60;;;;;;;27.28;35.83;100880.16;5030805;28;20052;-73
2022/09/15 06:48:52;;;;;;;3.97;1.00;;;;;;;27.52;35.64;100876.50;5018681;28;20439;-73
2022/09/15 06:51:22;;;;;;;3.97;1.38;;;;;;;27.78;35.03;100885.16;5024972;28;20132;-73
2022/09/15 06:53:48;;;;;;;6.22;1.48;;;;;;;27.54;35.31;100882.63;5030528;28;20040;-73
2022/09/15 06:56:19;;;;;;;5.53;1.30;;;;;;;27.25;35.14;100892.00;5030147;28;20120;-73
2022/09/15 06:58:48;;;;;;;5.28;1.48;;;;;;;27.37;35.78;100892.06;5029747;28;20034;-73
2022/09/15 07:01:22;;;;;;;7.28;1.70;;;;;;;27.78;34.77;100885.16;5031464;28;20029;-73
2022/09/15 07:03:48;;;;;;;9.38;1.30;;;;;;;27.84;35.07;100889.16;5063008;28;20029;-73
2022/09/15 07:06:13;;;;;;;5.32;1.30;;;;;;;27.83;35.12;100898.19;5030125;28;20056;-73
2022/09/15 07:08:39;;;;;;;3.72;1.20;;;;;;;27.99;35.19;100908.53;5020170;28;20048;-74
2022/09/15 07:11:06;;;;;;;4.15;1.30;;;;;;;27.46;35.93;100912.75;5021878;28;20040;-73
2022/09/15 07:13:31;;;;;;;3.47;1.30;;;;;;;26.52;37.71;100904.78;5025148;28;20689;-73
2022/09/15 07:15:59;;;;;;;4.28;1.52;;;;;;;26.40;38.06;100908.41;5014904;28;20040;-73
2022/09/15 07:18:25;;;;;;;4.55;1.40;;;;;;;27.31;36.76;100922.00;5011907;28;20478;-73
2022/09/15 07:20:51;;;;;;;7.60;1.25;;;;;;;27.93;35.97;100913.41;5026095;28;20036;-73
2022/09/15 07:23:17;;;;;;;5.55;1.45;;;;;;;27.75;36.64;100922.97;5027479;28;20108;-73
2022/09/15 07:25:44;;;;;;;7.88;1.40;;;;;;;27.90;36.23;100921.72;5025349;28;20488;-73
2022/09/15 07:28:13;;;;;;;5.53;1.30;;;;;;;27.70;35.58;100930.56;5028723;28;20045;-73
2022/09/15 07:30:39;;;;;;;3.47;1.27;;;;;;;28.00;34.90;100931.72;5048274;28;20033;-73
2022/09/15 07:33:05;;;;;;;7.75;1.58;;;;;;;26.42;37.64;100935.97;5011752;28;20676;-73
2022/09/15 07:35:31;;;;;;;9.25;1.40;;;;;;;26.78;37.18;100936.81;5021730;28;20488;-72
2022/09/15 07:37:56;;;;;;;11.23;1.35;;;;;;;26.39;38.59;100938.84;5030188;28;20038;-73
2022/09/15 07:40:22;;;;;;;5.15;1.25;;;;;;;25.55;40.42;100939.56;5025184;28;20033;-74
2022/09/15 07:42:47;;;;;;;6.93;1.55;;;;;;;26.11;39.08;100935.56;5046629;28;20034;-73
2022/09/15 07:45:13;;;;;;;9.82;1.80;;;;;;;26.67;38.31;100931.41;5026477;28;20037;-73
2022/09/15 07:47:38;;;;;;;9.13;2.05;;;;;;;27.06;38.04;100942.72;5030681;28;20564;-73
2022/09/15 07:50:05;;;;;;;9.55;1.40;;;;;;;26.59;38.67;100942.72;5015211;28;20115;-73
2022/09/15 07:52:31;;;;;;;4.35;1.83;;;;;;;26.58;38.65;100939.19;5014753;28;20503;-73
2022/09/15 07:54:56;;;;;;;7.28;1.52;;;;;;;26.81;38.38;100941.09;5025946;28;20033;-73
2022/09/15 07:57:22;;;;;;;13.27;1.50;;;;;;;27.08;37.67;100946.16;5023567;28;20033;-72
2022/09/15 07:59:47;;;;;;;12.57;1.52;;;;;;;27.99;36.39;100944.28;5025204;28;20120;-73
2022/09/15 08:02:17;;;;;;;9.40;1.05;;;;;;;28.37;35.69;100950.16;5012308;28;20029;-73
2022/09/15 08:04:43;;;;;;;7.65;1.20;;;;;;;28.11;36.08;100955.91;5023235;28;20032;-73
2022/09/15 08:07:09;;;;;;;8.65;1.40;;;;;;;28.00;35.50;100962.16;5013719;28;20490;-72
2022/09/15 08:09:36;;;;;;;9.65;1.38;;;;;;;27.96;35.67;100965.16;5014953;28;20030;-73
2022/09/15 08:12:01;;;;;;;16.48;2.28;;;;;;;28.50;35.01;100960.75;5019213;28;20030;-73
2022/09/15 08:14:28;;;;;;;6.82;1.60;;;;;;;28.50;34.55;100958.06;5037927;28;20030;-72
2022/09/15 08:16:54;;;;;;;10.35;1.40;;;;;;;29.04;34.69;100964.25;5021010;28;20036;-73
2022/09/15 08:19:19;;;;;;;10.93;2.08;;;;;;;28.40;35.22;100966.91;5011588;28;20030;-73
2022/09/15 08:21:45;;;;;;;9.30;1.25;;;;;;;29.51;34.00;100975.44;5032166;28;20029;-73
2022/09/15 08:24:11;;;;;;;4.85;1.13;;;;;;;29.70;33.78;100984.56;5017080;28;20116;-73
2022/09/15 08:26:37;;;;;;;5.07;1.50;;;;;;;29.54;33.50;100977.84;5029379;28;20868;-73
2022/09/15 08:29:03;;;;;;;7.97;1.40;;;;;;;29.34;32.96;100976.91;5028986;28;20029;-74
2022/09/15 08:31:28;;;;;;;4.47;0.75;;;;;;;29.17;34.17;100994.50;5029824;28;20017;-73
2022/09/15 08:33:54;;;;;;;5.68;1.10;;;;;;;28.22;35.70;101012.28;5028042;28;20025;-73
2022/09/15 08:36:20;;;;;;;5.50;1.10;;;;;;;26.84;37.77;101011.41;5016494;28;20030;-73
2022/09/15 08:38:46;;;;;;;6.55;0.90;;;;;;;25.04;40.19;101012.59;5061274;28;20067;-73
2022/09/15 08:41:28;;;;;;;5.35;0.90;;;;;;;24.71;40.29;101023.78;5029832;28;20088;-73
2022/09/15 08:44:09;;;;;;;5.95;1.20;;;;;;;25.03;39.97;101023.41;5023977;28;20088;-74
2022/09/15 08:46:55;;;;;;;4.75;0.77;;;;;;;25.53;38.90;101032.47;5010294;28;20022;-73
2022/09/15 08:49:36;;;;;;;3.22;0.80;;;;;;;25.60;39.53;101034.72;5023739;28;20026;-73
2022/09/15 08:52:24;;;;;;;5.13;1.00;;;;;;;26.61;36.96;101039.06;5010206;28;20049;-72
2022/09/15 08:54:54;;;;;;;5.40;0.60;;;;;;;26.28;37.91;101040.59;5010226;28;20037;-73
2022/09/15 08:57:22;;;;;;;9.25;1.08;;;;;;;25.59;38.08;101046.38;5009203;28;20120;-74
2022/09/15 08:59:47;;;;;;;7.90;1.02;;;;;;;25.57;37.67;101050.00;5018778;28;20026;-73
2022/09/15 09:02:25;;;;;;;4.75;1.20;;;;;;;25.38;38.26;101053.13;5026983;28;20025;-73
2022/09/15 09:05:21;;;;;;;5.85;0.75;;;;;;;26.36;37.05;101051.63;5028521;28;20032;-73
2022/09/15 09:08:07;;;;;;;6.68;0.98;;;;;;;26.16;37.05;101053.94;5029405;28;20144;-73
2022/09/15 09:10:51;;;;;;;8.32;1.10;;;;;;;27.11;35.77;101045.16;5025107;28;20448;-73
2022/09/15 09:13:44;;;;;;;4.95;1.00;;;;;;;27.09;34.19;101045.28;5029860;28;20021;-73
2022/09/15 09:16:21;;;;;;;1.45;0.68;;;;;;;26.70;34.30;101033.06;5029968;28;20041;-73
2022/09/15 09:19:00;;;;;;;3.45;0.65;;;;;;;26.54;33.63;101039.56;5028189;28;20037;-73
2022/09/15 09:21:32;;;;;;;8.35;0.75;;;;;;;27.56;31.87;101030.97;5032708;28;20160;-73
2022/09/15 09:24:21;;;;;;;2.88;1.50;;;;;;;27.45;32.30;101029.16;5034652;28;20049;-73
2022/09/15 09:26:53;;;;;;;6.05;0.88;;;;;;;25.98;32.46;101036.47;5033315;28;20029;-74
2022/09/15 09:29:26;;;;;;;5.55;1.00;;;;;;;27.74;30.87;101034.03;5032154;28;20037;-73
2022/09/15 09:31:54;;;;;;;2.35;0.55;;;;;;;27.20;31.40;101028.34;5022434;28;20036;-74
2022/09/15 09:34:53;;;;;;;3.85;0.95;;;;;;;26.70;32.40;101038.44;5032966;28;20049;-73
2022/09/15 09:37:18;;;;;;;5.25;1.50;;;;;;;27.95;31.63;101026.09;5032022;28;20029;-73
2022/09/15 09:39:45;;;;;;;2.35;0.80;;;;;;;27.98;31.43;101025.00;5022007;28;20087;-73
2022/09/15 09:42:17;;;;;;;5.15;0.98;;;;;;;28.73;30.93;101016.16;5012564;28;20045;-73
2022/09/15 09:44:43;;;;;;;4.53;0.82;;;;;;;27.72;31.77;101019.88;5053361;28;20055;-73
2022/09/15 09:47:09;;;;;;;6.13;0.73;;;;;;;28.39;30.71;101018.94;5018463;28;20082;-73
2022/09/15 09:49:43;;;;;;;4.18;1.17;;;;;;;29.18;28.88;101017.75;5018486;28;20615;-73
2022/09/15 09:52:08;;;;;;;7.68;1.02;;;;;;;28.57;30.07;101027.31;5013403;28;20120;-73
2022/09/15 09:54:34;;;;;;;8.55;1.42;;;;;;;27.86;30.87;101027.69;5015928;28;20529;-74
2022/09/15 09:57:12;;;;;;;3.10;1.17;;;;;;;29.60;29.09;101020.38;5023495;28;20034;-73
2022/09/15 09:59:42;;;;;;;5.72;0.70;;;;;;;27.89;29.83;101022.06;5022733;28;20033;-73
2022/09/15 10:02:10;;;;;;;3.35;1.05;;;;;;;28.49;29.09;101024.41;5028929;28;20069;-73
2022/09/15 10:04:41;;;;;;;8.15;1.15;;;;;;;29.24;28.01;101017.25;5032517;28;20040;-73
2022/09/15 10:07:07;;;;;;;6.65;0.90;;;;;;;28.27;29.53;101020.81;5022117;28;20039;-73
2022/09/15 10:09:33;;;;;;;5.78;0.85;;;;;;;28.77;29.11;101016.75;5050757;28;20038;-73
2022/09/15 10:12:02;;;;;;;4.90;0.80;;;;;;;29.37;28.35;101013.47;5019043;28;20042;-73
2022/09/15 10:14:31;;;;;;;4.07;0.85;;;;;;;28.68;28.95;101012.16;5030940;28;20028;-73
2022/09/15 10:17:16;;;;;;;4.88;1.23;;;;;;;30.19;27.83;101020.59;5020220;28;20125;-73
2022/09/15 10:19:41;;;;;;;7.13;0.90;;;;;;;29.21;26.91;101004.03;5028778;28;20037;-74
2022/09/15 10:22:07;;;;;;;7.43;1.42;;;;;;;29.35;27.40;101015.47;5026711;28;20523;-73
2022/09/15 10:24:37;;;;;;;5.68;0.85;;;;;;;28.66;28.02;101006.91;5025285;28;20025;-73
2022/09/15 10:27:26;;;;;;;7.45;1.83;;;;;;;28.79;27.00;101014.78;5025910;28;20440;-73
2022/09/15 10:29:52;;;;;;;3.50;0.85;;;;;;;29.07;26.36;101007.03;5035086;28;20033;-74
2022/09/15 10:32:29;;;;;;;6.93;1.00;;;;;;;28.57;26.23;101005.78;5024403;28;20026;-73
2022/09/15 10:35:05;;;;;;;4.03;0.80;;;;;;;29.31;26.21;101008.66;5026678;28;20025;-73
2022/09/15 10:37:35;;;;;;;3.60;0.80;;;;;;;28.26;27.13;101008.34;5014960;28;20123;-73
2022/09/15 10:40:26;;;;;;;2.95;0.80;;;;;;;29.53;25.83;101008.47;5025251;28;20116;-73
2022/09/15 10:42:55;;;;;;;5.28;0.63;;;;;;;28.01;25.00;101008.66;5022604;28;20100;-73
2022/09/15 10:45:24;;;;;;;3.90;1.05;;;;;;;28.34;24.29;101009.53;5040499;28;20423;-74
2022/09/15 10:47:50;;;;;;;0.77;0.55;;;;;;;27.04;24.90;101001.00;5015001;28;20029;-73
2022/09/15 10:50:26;;;;;;;2.42;0.70;;;;;;;27.78;24.85;100997.91;5043301;28;20037;-73
2022/09/15 10:53:23;;;;;;;6.10;0.80;;;;;;;28.35;24.29;101003.19;5028037;28;20393;-74
2022/09/15 10:56:03;;;;;;;9.95;2.20;;;;;;;27.58;25.73;101002.19;5015874;28;20033;-73
2022/09/15 10:58:46;;;;;;;7.85;1.00;;;;;;;27.61;26.76;101003.78;5013473;28;20084;-73
2022/09/15 11:01:52;;;;;;;4.28;0.68;;;;;;;27.83;26.16;101011.81;5052707;28;20026;-74
2022/09/15 11:04:37;;;;;;;9.05;0.77;;;;;;;28.44;25.42;101010.50;5022783;28;20033;-73
2022/09/15 11:07:24;;;;;;;5.65;0.88;;;;;;;28.56;25.15;101025.63;5021742;28;20159;-73
2022/09/15 11:09:53;;;;;;;6.35;0.80;;;;;;;26.83;26.29;101033.84;5060119;28;20355;-73
2022/09/15 11:12:53;;;;;;;5.57;0.80;;;;;;;28.35;24.91;101032.75;5021014;28;20025;-72
2022/09/15 11:15:42;;;;;;;4.07;0.63;;;;;;;28.02;24.93;101026.47;5012137;28;20037;-73
2022/09/15 11:18:45;;;;;;;3.20;0.60;;;;;;;29.55;23.91;101028.03;5018166;28;20029;-71
2022/09/15 11:21:20;;;;;;;1.35;0.60;;;;;;;27.40;26.18;101034.88;5024598;28;20034;-71
2022/09/15 11:24:10;;;;;;;4.00;0.80;;;;;;;27.77;26.41;101029.25;5023853;28;20029;-71
2022/09/15 11:26:51;;;;;;;3.72;0.82;;;;;;;27.25;26.45;101034.19;5048412;28;20036;-72
2022/09/15 11:29:21;;;;;;;11.80;1.25;;;;;;;27.16;27.60;101032.25;5031817;28;20034;-72
2022/09/15 11:31:53;;;;;;;6.25;0.70;;;;;;;26.74;28.71;101034.53;5015669;28;20034;-71
2022/09/15 11:34:25;;;;;;;3.72;0.60;;;;;;;27.28;27.72;101037.63;5021707;28;20271;-71
2022/09/15 11:37:16;;;;;;;2.95;1.25;;;;;;;28.45;26.32;101033.69;5049147;28;20453;-71
2022/09/15 11:39:47;;;;;;;3.08;0.90;;;;;;;27.39;27.09;101043.03;5028366;28;20021;-71